Stations météo

réclame
Mon MeteoGroup
Kinbrace, Grande-Bretagne (99016): Température de l'air & dewpoint: 17.03.2019 15:00:00 - 23.03.2019 15:00:00 (GMT)Kinbrace, Grande-Bretagne (99016): Vitesse du vent & gusts: 17.03.2019 15:00:00 - 23.03.2019 15:00:00 (GMT)Kinbrace, Grande-Bretagne (99016): Direction du vent: 17.03.2019 15:00:00 - 23.03.2019 15:00:00 (GMT)Kinbrace, Grande-Bretagne (99016): Quantités de précipitations: 17.03.2019 15:00:00 - 23.03.2019 15:00:00 (GMT)
Date & Time tt [°C] td [°C] ff [km/h] ff [knt] fx [km/h] fx [knt] dd rr [mm]
23.03.2019 15:00:00 - - - - - - - -
23.03.2019 14:00:00 7,6 3,6 24 13 48 26 N 0,0
23.03.2019 13:00:00 8,1 3,0 28 15 61 33 N 0,0
23.03.2019 12:00:00 7,0 0,3 39 21 68 37 N 0,0
23.03.2019 11:00:00 5,2 2,1 35 19 76 41 N 0,0
23.03.2019 10:00:00 6,0 0,6 35 19 59 32 N 0,0
23.03.2019 09:00:00 4,9 1,3 26 14 46 25 N 0,0
23.03.2019 08:00:00 3,9 -0,3 28 15 57 31 N 0,0
23.03.2019 07:00:00 2,1 -0,6 26 14 52 28 N 0,4
23.03.2019 06:00:00 2,6 -0,7 26 14 59 32 N 0,2
23.03.2019 05:00:00 2,1 0,3 11 6 - - N 0,0
23.03.2019 04:00:00 2,1 -0,3 22 12 48 26 N 0,0
23.03.2019 03:00:00 2,6 0,3 29 16 50 27 N 0,2
23.03.2019 02:00:00 2,2 -0,4 22 12 46 25 N 0,0
23.03.2019 01:00:00 2,2 -1,2 15 8 - - N 0,0
23.03.2019 00:00:00 1,2 -0,1 29 16 59 32 N 0,4
22.03.2019 23:00:00 2,1 0,6 21 11 46 25 N 0,8
22.03.2019 22:00:00 2,7 -0,1 15 8 - - N 0,0
22.03.2019 21:00:00 3,0 0,8 28 15 59 32 N 0,6
22.03.2019 20:00:00 3,1 -0,1 35 19 65 35 N 0,0
22.03.2019 19:00:00 3,6 1,4 16 9 55 30 N 0,2
22.03.2019 18:00:00 3,9 1,8 37 20 55 30 N 0,2
22.03.2019 17:00:00 6,9 1,3 35 19 67 36 N 0,0
22.03.2019 16:00:00 7,0 1,3 31 17 68 37 N 0,0
22.03.2019 15:00:00 8,6 3,1 29 16 63 34 N 0,0
22.03.2019 14:00:00 8,4 3,7 37 20 70 38 N 0,0
22.03.2019 13:00:00 9,6 5,3 35 19 57 31 N 0,0
22.03.2019 12:00:00 9,1 5,1 34 18 61 33 N 0,2
22.03.2019 11:00:00 10,1 8,1 28 15 50 27 N 0,8
22.03.2019 10:00:00 9,7 8,1 28 15 57 31 N 0,6
22.03.2019 09:00:00 10,3 7,4 37 20 59 32 N 0,0
22.03.2019 08:00:00 9,7 7,0 39 21 65 35 N 0,0
22.03.2019 07:00:00 9,8 6,2 42 23 59 32 N 0,0
22.03.2019 06:00:00 9,1 5,7 31 17 - - N 0,0
22.03.2019 05:00:00 8,8 5,4 28 15 46 25 N 0,0
22.03.2019 04:00:00 9,3 5,4 31 17 52 28 N 0,0
22.03.2019 03:00:00 9,8 6,0 29 16 46 25 N 0,0
22.03.2019 02:00:00 9,9 7,1 24 13 - - N 0,0
22.03.2019 01:00:00 9,9 7,2 34 18 48 26 N 0,0
22.03.2019 00:00:00 10,2 7,3 34 18 46 25 N 0,0
21.03.2019 23:00:00 8,9 6,6 26 14 - - N 0,0
21.03.2019 22:00:00 8,5 6,6 31 17 - - N 0,0
21.03.2019 21:00:00 7,9 6,9 - - 46 25 - 0,0
21.03.2019 20:00:00 8,1 6,8 - - - - - 0,0
21.03.2019 19:00:00 7,7 4,8 - - - - - 0,0
21.03.2019 18:00:00 7,7 4,6 - - - - - 0,0
21.03.2019 17:00:00 9,7 5,9 - - - - - 0,0
21.03.2019 16:00:00 11,2 3,1 - - - - - 0,0
21.03.2019 15:00:00 11,9 4,6 - - - - - 0,0
21.03.2019 14:00:00 11,6 4,3 - - - - - 0,0
21.03.2019 13:00:00 11,5 6,2 - - - - - 0,0
21.03.2019 12:00:00 9,8 5,0 8 4 - - N 0,0
21.03.2019 11:00:00 9,4 3,5 8 4 - - N 0,0
21.03.2019 10:00:00 8,0 4,0 4 2 - - N 0,0
21.03.2019 09:00:00 6,9 5,8 8 4 - - N 0,0
21.03.2019 08:00:00 6,2 5,6 18 10 - - N 0,0
21.03.2019 07:00:00 6,5 6,0 13 7 - - N 0,6
21.03.2019 06:00:00 6,8 6,2 11 6 - - N 0,2
21.03.2019 05:00:00 7,9 7,2 16 9 - - N 0,8
21.03.2019 04:00:00 9,9 8,9 8 4 - - N 0,4
21.03.2019 03:00:00 10,3 8,9 21 11 - - N 0,2
21.03.2019 02:00:00 10,5 9,0 22 12 - - N 0,2
21.03.2019 01:00:00 10,5 9,2 21 11 - - N 0,2
21.03.2019 00:00:00 10,6 9,4 13 7 - - N 0,0
20.03.2019 23:00:00 10,5 9,6 11 6 - - N 1,4
20.03.2019 22:00:00 9,5 8,7 4 2 - - N 1,0
20.03.2019 21:00:00 10,0 8,2 5 3 - - N 0,0
20.03.2019 20:00:00 11,7 8,2 13 7 - - N 0,0
20.03.2019 19:00:00 11,8 8,4 26 14 - - N 0,0
20.03.2019 18:00:00 12,6 8,9 28 15 52 28 N 0,2
20.03.2019 17:00:00 12,2 8,8 35 19 48 26 N 0,0
20.03.2019 16:00:00 12,8 8,8 - - - - - 0,0
20.03.2019 15:00:00 13,1 8,2 22 12 - - N 0,0
20.03.2019 14:00:00 - - - - - - - -
20.03.2019 13:00:00 - - - - - - - 0,0
20.03.2019 12:00:00 - - - - - - - 0,0
20.03.2019 11:00:00 10,9 3,2 18 10 - - SW 0,0
20.03.2019 10:00:00 8,9 3,0 13 7 - - W 0,0
20.03.2019 09:00:00 7,8 3,8 16 9 - - WSW 0,0
20.03.2019 08:00:00 7,4 3,6 21 11 - - SW 0,0
20.03.2019 07:00:00 7,6 3,5 15 8 - - WSW 0,0
20.03.2019 06:00:00 7,1 3,4 15 8 - - SSW 0,0
20.03.2019 05:00:00 6,2 2,6 13 7 - - WSW 0,0
20.03.2019 04:00:00 6,3 2,6 15 8 - - W 0,0
20.03.2019 03:00:00 5,6 2,3 16 9 - - WSW 0,0
20.03.2019 02:00:00 7,1 3,5 15 8 - - NNW 0,0
20.03.2019 01:00:00 7,3 4,8 16 9 - - W 0,0
20.03.2019 00:00:00 7,6 3,5 9 5 - - NW 0,0
19.03.2019 23:00:00 7,6 2,9 22 12 - - WNW 0,0
19.03.2019 22:00:00 7,7 3,0 16 9 - - NW 0,0
19.03.2019 21:00:00 7,9 4,1 11 6 - - W 0,0
19.03.2019 20:00:00 8,5 4,0 26 14 - - W 0,0
19.03.2019 19:00:00 9,3 5,4 21 11 - - W 0,0
19.03.2019 18:00:00 9,9 6,2 18 10 - - W 0,0
19.03.2019 17:00:00 10,1 7,9 24 13 48 26 WSW 0,0
19.03.2019 16:00:00 11,0 7,7 28 15 54 29 WSW 0,0
19.03.2019 15:00:00 11,5 7,3 44 24 63 34 W 0,0
19.03.2019 14:00:00 12,0 7,9 21 11 - - WNW 0,0
19.03.2019 13:00:00 11,7 7,7 15 8 - - WSW 0,0
19.03.2019 12:00:00 11,3 7,2 16 9 - - SSW 0,0
19.03.2019 11:00:00 9,2 5,9 18 10 - - S 0,0
19.03.2019 10:00:00 8,6 5,4 21 11 - - SW 0,0
19.03.2019 09:00:00 7,6 5,6 11 6 - - SSE 0,2
19.03.2019 08:00:00 7,0 5,6 15 8 - - SSE 0,2
19.03.2019 07:00:00 6,3 4,7 9 5 - - SSW 0,0
19.03.2019 06:00:00 6,1 4,1 4 2 - - SE 0,0
19.03.2019 05:00:00 6,8 4,2 18 10 - - SE 0,0
19.03.2019 04:00:00 5,4 3,6 5 3 - - S 0,0
19.03.2019 03:00:00 3,6 2,7 4 2 - - SSE 0,0
19.03.2019 02:00:00 3,6 2,5 5 3 - - ESE 0,0
19.03.2019 01:00:00 2,3 1,5 5 3 - - SSE 0,0
19.03.2019 00:00:00 2,0 1,2 8 4 - - SSE 0,0
18.03.2019 23:00:00 2,2 1,4 4 2 - - ESE 0,0
18.03.2019 22:00:00 1,8 0,6 5 3 - - ESE 0,0
18.03.2019 21:00:00 2,3 0,7 2 1 - - SSE 0,0
18.03.2019 20:00:00 3,2 1,1 9 5 - - SSE 0,0
18.03.2019 19:00:00 4,7 1,6 15 8 - - SE 0,0
18.03.2019 18:00:00 6,7 2,3 16 9 - - SE 0,0
18.03.2019 17:00:00 8,0 3,1 18 10 - - S 0,0
18.03.2019 16:00:00 9,1 2,4 11 6 - - S 0,0
18.03.2019 15:00:00 9,7 1,8 11 6 - - SSW 0,0
18.03.2019 14:00:00 9,4 0,3 13 7 - - S 0,0
18.03.2019 13:00:00 9,2 1,5 13 7 - - SSW 0,0
18.03.2019 12:00:00 8,9 1,4 8 4 - - S 0,0
18.03.2019 11:00:00 8,3 1,8 4 2 - - S 0,0
18.03.2019 10:00:00 6,6 1,0 5 3 - - SSE 0,0
18.03.2019 09:00:00 3,7 0,0 5 3 - - SSW 0,0
18.03.2019 08:00:00 0,2 -1,6 4 2 - - S 0,0
18.03.2019 07:00:00 -1,3 -2,4 5 3 - - SE 0,0
18.03.2019 06:00:00 -2,0 -3,2 4 2 - - SSE 0,0
18.03.2019 05:00:00 -1,9 -3,0 4 2 - - SSE 0,0
18.03.2019 04:00:00 -2,0 -2,8 4 2 - - SE 0,0
18.03.2019 03:00:00 -1,6 -2,6 8 4 - - SE 0,0
18.03.2019 02:00:00 -0,5 -1,9 4 2 - - NE 0,0
18.03.2019 01:00:00 1,0 -0,3 11 6 - - NNW 0,0
18.03.2019 00:00:00 0,6 -0,5 4 2 - - NE 0,0
17.03.2019 23:00:00 0,5 -0,5 11 6 - - N 0,2
17.03.2019 22:00:00 0,3 -1,1 8 4 - - NNW 0,0
17.03.2019 21:00:00 1,0 -0,6 11 6 - - N 0,0
17.03.2019 20:00:00 2,5 0,3 15 8 - - NW 0,0
17.03.2019 19:00:00 1,9 -1,3 11 6 - - NNW 0,0
17.03.2019 18:00:00 4,6 -0,8 26 14 52 28 NNW 0,0
17.03.2019 17:00:00 5,9 -2,1 39 21 57 31 NNW 0,0
17.03.2019 16:00:00 6,2 0,7 37 20 57 31 NNW 0,0
17.03.2019 15:00:00 6,5 2,6 39 21 54 29 NNW 0,0

tt = Température de l'air
td = dewpoint
ff = Vitesse du vent
fx = gusts
dd = Direction du vent
rr = Quantités de précipitations

stations d'obs. à proximité